aviador You're here:

KVBT Decoded Metar

BENTONVILLE in AR, USA
Report Time2018-01-17 00:56:00
UTC Time2018-01-17 01:21:19
Flight Rules vfr VFR
Wind330° at 05 kt
W.Decomp.*RWY 36: 4.1 kt HW 2.8 kt LCW
W.Rank330° ranks 29
Current wind is below 330° avg. (6.7)
Visibility9999 m
Phenomena:N/A
Clouds:N/A
Expected CloudBase > 1,200 ft AGL from Temp-Dew spread
CeilingNone
Temp-16°C (ISA -28)
Dew Point-19°C (78% RH)
AAT-21.3°C
QNH1040 hPa
Density Alt-3,196 ft
Elevation1,296 ft
Report Wrong Elevation
Raw Report
KVBT 170056Z AUTO 33005KT 10SM CLR M16/M19 A3072 RMK AO2 SLP439
T11611194 FZRANO=

Extra information for KVBT:More info

Metar Taf Metar & Taf Last 4 Metars F.Rules Stats Wind Profile Meteogram Temp Stats Airport Information Weather charts Add Link Nearby VenuesMetar ALERT Operation Metar Decoded Social comments

AIRNAV info for KVBT